Time;durP1;ratioP1;P1;durP2;ratioP2;P2;SDS_P1;SDS_P2;PMS_P1;PMS_P2;Temp;Humidity;BMP_temperature;BMP_pressure;BME280_temperature;BME280_humidity;BME280_pressure;Samples;Min_cycle;Max_cycle;Signal;HPM_P1;HPM_P2
2021/10/06 00:13:32;1466923.00;4.89;2581.03;0.00;0.00;0.62;;;;;16.00;3.40;;;;;;2273628;61;1005;-94
2021/10/06 01:33:03;1625146.00;5.42;2880.89;0.00;0.00;0.62;;;;;14.10;1.00;;;;;;2269267;61;1449;-90
2021/10/06 01:35:31;1078255.00;3.59;1871.58;0.00;0.00;0.62;;;;;13.80;2.00;;;;;;2267148;61;1060;-91
2021/10/06 01:42:55;1316570.00;4.39;2302.46;0.00;0.00;0.62;;;;;13.40;2.70;;;;;;2269640;61;1452;-92
2021/10/06 01:45:25;1222621.00;4.08;2131.17;60951.00;0.20;106.12;;;;;13.60;2.60;;;;;;2267066;61;930;-92
2021/10/06 01:50:24;1102243.00;3.67;1914.44;0.00;0.00;0.62;;;;;14.10;1.00;;;;;;2273220;61;1395;-91
2021/10/06 01:55:25;1315658.00;4.39;2300.79;0.00;0.00;0.62;;;;;14.60;1.00;;;;;;2272788;61;1416;-93
2021/10/06 01:57:52;1048950.00;3.50;1819.36;0.00;0.00;0.62;;;;;14.70;1.00;;;;;;2262536;61;1916;-91
2021/10/06 02:00:19;859576.00;2.87;1485.23;0.00;0.00;0.62;;;;;14.80;1.00;;;;;;2254383;61;1020;-91
2021/10/06 02:02:47;914524.00;3.05;1581.64;0.00;0.00;0.62;;;;;14.50;1.00;;;;;;2246445;61;1377;-91
2021/10/06 02:05:16;839515.00;2.80;1450.13;0.00;0.00;0.62;;;;;14.50;1.00;;;;;;2238757;62;969;-92
2021/10/06 02:10:13;914082.00;3.05;1580.87;0.00;0.00;0.62;;;;;14.00;1.00;;;;;;2273507;61;1188;-91
2021/10/06 02:15:09;1025190.00;3.42;1777.14;0.00;0.00;0.62;;;;;14.10;1.00;;;;;;2273713;61;1372;-94
2021/10/06 02:17:36;1033398.00;3.44;1791.71;0.00;0.00;0.62;;;;;14.40;1.00;;;;;;2267125;61;1993;-92
2021/10/06 02:20:04;1114272.00;3.71;1935.97;13222.00;0.04;23.53;;;;;14.50;1.00;;;;;;2259165;61;1018;-91
2021/10/06 02:22:31;1214568.00;4.05;2116.58;0.00;0.00;0.62;;;;;14.70;1.00;;;;;;2273738;56;4275;-93
2021/10/06 02:29:55;1202768.00;4.01;2095.23;0.00;0.00;0.62;;;;;15.00;1.00;;;;;;2273591;61;1412;-91
2021/10/06 02:32:22;938404.00;3.13;1623.67;0.00;0.00;0.62;;;;;15.30;1.00;;;;;;2263057;61;1460;-92
2021/10/06 02:34:49;967123.00;3.22;1674.33;63738.00;0.21;110.94;;;;;15.40;1.00;;;;;;2263053;61;1044;-92
2021/10/06 02:44:46;941913.00;3.14;1629.86;0.00;0.00;0.62;;;;;15.20;1.00;;;;;;2274180;61;1308;-92
2021/10/06 02:47:12;732408.00;2.44;1263.48;0.00;0.00;0.62;;;;;15.40;1.00;;;;;;2284197;56;4163;-90
2021/10/06 02:52:10;1494224.00;4.98;2632.26;0.00;0.00;0.62;;;;;15.20;1.00;;;;;;2275448;61;1309;-93
2021/10/06 02:57:06;1123392.00;3.74;1952.31;0.00;0.00;0.62;;;;;15.20;1.00;;;;;;2273244;61;1977;-91
2021/10/06 03:02:00;1076219.00;3.59;1867.95;88741.00;0.30;154.13;;;;;14.90;1.00;;;;;;2273661;61;1410;-90
2021/10/06 03:11:52;1550553.00;5.17;2738.61;74428.00;0.25;129.41;;;;;15.30;1.00;;;;;;2273329;61;1413;-90
2021/10/06 03:14:19;980383.00;3.27;1697.76;88736.00;0.30;154.13;;;;;15.60;1.00;;;;;;2262929;61;968;-90
2021/10/06 03:16:46;1261065.00;4.20;2201.02;80748.00;0.27;140.33;;;;;15.50;1.00;;;;;;2255970;61;1006;-90
2021/10/06 03:49:09;1351288.00;4.50;2366.28;101438.00;0.34;176.05;;;;;15.60;1.00;;;;;;2273926;61;1204;-92
2021/10/06 03:59:00;1612215.00;5.37;2856.11;67021.00;0.22;116.61;;;;;15.50;1.00;;;;;;2272986;61;1916;-91
2021/10/06 04:03:55;880879.00;2.94;1522.56;0.00;0.00;0.62;;;;;15.60;1.00;;;;;;2273134;61;1228;-92
2021/10/06 04:08:51;1190700.00;3.97;2073.41;6290.00;0.02;11.52;;;;;15.30;1.00;;;;;;2268942;61;1404;-92
2021/10/06 04:26:31;1411080.00;4.70;2476.89;0.00;0.00;0.62;;;;;14.80;1.00;;;;;;2288337;40;3635;-92
2021/10/06 04:56:08;1198319.00;3.99;2087.18;0.00;0.00;0.62;;;;;14.90;1.00;;;;;;2272825;61;1395;-93
2021/10/06 05:03:30;1235090.00;4.12;2153.79;0.00;0.00;0.62;;;;;15.30;1.00;;;;;;2276915;61;1399;-90
2021/10/06 06:40:55;886492.00;2.95;1532.41;86452.00;0.29;150.18;;;;;15.80;1.00;;;;;;2273302;61;1407;-91
2021/10/06 06:43:22;1026808.00;3.42;1780.01;67952.00;0.23;118.22;;;;;15.80;1.00;;;;;;2267724;61;998;-90
2021/10/06 06:45:49;776079.00;2.59;1339.44;90621.00;0.30;157.38;;;;;15.80;1.00;;;;;;2257305;61;993;-90
2021/10/06 06:48:16;910377.00;3.03;1574.35;91601.00;0.31;159.07;;;;;15.50;1.00;;;;;;2260657;61;1004;-89
2021/10/06 06:50:45;751666.00;2.51;1296.95;86556.00;0.29;150.36;;;;;15.20;1.00;;;;;;2260813;61;970;-89
2021/10/06 06:53:12;596729.00;1.99;1028.57;87700.00;0.29;152.34;;;;;15.70;1.00;;;;;;2267166;61;1408;-90
2021/10/06 06:55:39;801062.00;2.67;1382.98;100567.00;0.34;174.55;;;;;16.10;1.00;;;;;;2260526;61;1017;-90
2021/10/06 06:58:07;748187.00;2.49;1290.91;92771.00;0.31;161.09;;;;;16.10;1.00;;;;;;2260403;61;2002;-89
2021/10/06 07:00:34;895658.00;2.99;1548.50;83757.00;0.28;145.53;;;;;16.00;1.00;;;;;;2266572;61;1023;-88
2021/10/06 07:03:01;1006654.00;3.36;1744.26;79198.00;0.26;137.65;;;;;15.70;1.00;;;;;;2267187;61;1431;-88
2021/10/06 07:05:28;896225.00;2.99;1549.49;0.00;0.00;0.62;;;;;15.90;1.00;;;;;;2267207;61;983;-88
2021/10/06 07:07:55;892006.00;2.97;1542.08;0.00;0.00;0.62;;;;;16.00;1.00;;;;;;2267252;61;988;-88
2021/10/06 07:10:23;720566.00;2.40;1242.92;0.00;0.00;0.62;;;;;16.10;1.00;;;;;;2267246;61;1056;-88
2021/10/06 07:12:50;786054.00;2.62;1356.81;0.00;0.00;0.62;;;;;16.30;1.00;;;;;;2267701;61;1389;-88
2021/10/06 07:15:18;639615.00;2.13;1102.67;0.00;0.00;0.62;;;;;16.20;1.00;;;;;;2267772;61;1124;-88
2021/10/06 07:17:45;605108.00;2.02;1043.04;0.00;0.00;0.62;;;;;15.90;1.00;;;;;;2267774;61;2015;-88
2021/10/06 07:20:12;711262.00;2.37;1226.77;0.00;0.00;0.62;;;;;16.30;1.00;;;;;;2267711;61;1629;-88
2021/10/06 07:22:39;541624.00;1.81;933.52;0.00;0.00;0.62;;;;;16.70;1.00;;;;;;2267749;61;1277;-88
2021/10/06 07:25:07;944310.00;3.15;1634.08;0.00;0.00;0.62;;;;;16.60;1.00;;;;;;2267747;61;1802;-89
2021/10/06 07:27:34;1280263.00;4.27;2236.03;224262.00;0.75;387.68;;;;;16.60;1.00;;;;;;2267850;61;921;-88
2021/10/06 07:30:02;2540432.00;8.47;4799.50;332482.00;1.11;573.75;;;;;16.60;1.00;;;;;;2267736;61;1725;-88
2021/10/06 07:32:30;1924112.00;6.41;3469.65;173919.00;0.58;301.02;;;;;16.80;1.00;;;;;;2267726;61;1372;-88
2021/10/06 07:34:57;2157348.00;7.19;3952.58;275602.00;0.92;475.98;;;;;16.90;1.00;;;;;;2267688;61;1711;-87
2021/10/06 07:37:25;1561800.00;5.21;2759.96;151762.00;0.51;262.84;;;;;17.00;1.00;;;;;;2267713;61;1319;-89
2021/10/06 07:39:52;882139.00;2.94;1524.77;111240.00;0.37;192.97;;;;;17.20;1.00;;;;;;2267606;61;1926;-88
2021/10/06 07:42:19;934856.00;3.12;1617.42;138991.00;0.46;240.83;;;;;17.80;1.00;;;;;;2267649;61;1673;-88
2021/10/06 07:44:47;737828.00;2.46;1272.90;0.00;0.00;0.62;;;;;17.30;1.00;;;;;;2267694;61;1129;-89
2021/10/06 07:47:15;593905.00;1.98;1023.70;0.00;0.00;0.62;;;;;16.90;1.00;;;;;;2267710;61;1164;-88
2021/10/06 07:49:44;118352776.00;394.51;67154216.00;0.00;0.00;0.62;;;;;16.60;1.00;;;;;;2267725;61;1595;-88
2021/10/06 07:52:11;711087.00;2.37;1226.47;0.00;0.00;0.62;;;;;16.30;1.00;;;;;;2267458;61;1423;-89
2021/10/06 07:54:38;819323.00;2.73;1414.84;30487.00;0.10;53.43;;;;;16.40;1.00;;;;;;2267742;61;1308;-89
2021/10/06 07:57:05;730337.00;2.43;1259.89;0.00;0.00;0.62;;;;;16.70;1.00;;;;;;2267801;61;911;-88
2021/10/06 07:59:32;579510.00;1.93;998.85;0.00;0.00;0.62;;;;;16.50;1.00;;;;;;2267697;61;1987;-89
2021/10/06 08:01:59;771681.00;2.57;1331.78;25500.00;0.09;44.79;;;;;16.10;1.00;;;;;;2267685;61;1281;-88
2021/10/06 08:04:26;819256.00;2.73;1414.73;0.00;0.00;0.62;;;;;16.60;1.00;;;;;;2267588;61;1091;-89
2021/10/06 08:06:55;591240.00;1.97;1019.10;0.00;0.00;0.62;;;;;16.90;1.00;;;;;;2267682;61;1286;-87
2021/10/06 08:09:22;610175.00;2.03;1051.79;0.00;0.00;0.62;;;;;16.70;1.00;;;;;;2267626;61;1638;-88
2021/10/06 08:11:49;542979.00;1.81;935.86;0.00;0.00;0.62;;;;;16.20;1.00;;;;;;2267682;61;1387;-89
2021/10/06 08:14:16;681814.00;2.27;1175.72;0.00;0.00;0.62;;;;;16.20;1.00;;;;;;2267678;61;1079;-90
2021/10/06 08:16:43;692047.00;2.31;1193.45;0.00;0.00;0.62;;;;;16.50;1.00;;;;;;2267668;61;1559;-89
2021/10/06 08:19:10;548246.00;1.83;944.94;0.00;0.00;0.62;;;;;16.40;1.00;;;;;;2267632;61;2002;-89
2021/10/06 08:21:37;955233.00;3.18;1653.34;64383.00;0.21;112.05;;;;;16.50;1.00;;;;;;2267675;61;1420;-89
2021/10/06 08:24:06;670016.00;2.23;1155.28;0.00;0.00;0.62;;;;;17.00;1.00;;;;;;2267580;61;1150;-89
2021/10/06 08:26:33;627296.00;2.09;1081.38;0.00;0.00;0.62;;;;;17.60;1.00;;;;;;2267630;61;1141;-89
2021/10/06 08:29:00;780895.00;2.60;1347.82;0.00;0.00;0.62;;;;;17.50;1.00;;;;;;2267666;61;1131;-89
2021/10/06 08:31:27;514980.00;1.72;887.62;0.00;0.00;0.62;;;;;17.40;1.00;;;;;;2267544;61;1384;-89
2021/10/06 08:33:54;486914.00;1.62;839.30;0.00;0.00;0.62;;;;;17.70;1.00;;;;;;2267560;61;1056;-88
2021/10/06 08:36:21;673536.00;2.25;1161.38;30281.00;0.10;53.07;;;;;18.00;1.00;;;;;;2267618;61;896;-88
2021/10/06 08:38:48;589806.00;1.97;1016.62;0.00;0.00;0.62;;;;;17.70;1.00;;;;;;2267422;61;1997;-88
2021/10/06 08:41:16;504444.00;1.68;869.48;0.00;0.00;0.62;;;;;17.10;1.00;;;;;;2267462;61;1318;-89
2021/10/06 08:43:44;970143.00;3.23;1679.66;24278.00;0.08;42.68;;;;;16.70;1.00;;;;;;2260475;61;1047;-89
2021/10/06 08:46:12;707252.00;2.36;1219.82;0.00;0.00;0.62;;;;;17.10;1.00;;;;;;2267519;61;929;-88
2021/10/06 08:48:38;659311.00;2.20;1136.75;0.00;0.00;0.62;;;;;17.40;1.00;;;;;;2260436;61;954;-89
2021/10/06 08:51:05;846709.00;2.82;1462.71;0.00;0.00;0.62;;;;;17.00;1.00;;;;;;2267357;61;1328;-89
2021/10/06 08:53:32;632443.00;2.11;1090.27;0.00;0.00;0.62;;;;;16.60;1.00;;;;;;2267473;61;1619;-89
2021/10/06 08:55:59;814466.00;2.71;1406.36;0.00;0.00;0.62;;;;;16.50;1.00;;;;;;2267539;61;936;-89
2021/10/06 08:58:28;654615.00;2.18;1128.62;0.00;0.00;0.62;;;;;16.50;1.00;;;;;;2267410;61;1993;-89
2021/10/06 09:00:57;730379.00;2.43;1259.96;0.00;0.00;0.62;;;;;16.40;1.00;;;;;;2260330;61;981;-88
2021/10/06 09:03:28;930264.00;3.10;1609.34;14250.00;0.05;25.31;;;;;16.40;1.00;;;;;;2267303;61;1060;-89
2021/10/06 09:06:09;568759.00;1.90;980.31;0.00;0.00;0.62;;;;;17.10;1.00;;;;;;2267571;61;1111;-89
2021/10/06 09:08:38;544806.00;1.82;939.01;0.00;0.00;0.62;;;;;16.70;1.00;;;;;;2267474;61;1574;-89
2021/10/06 09:11:07;1185057.00;3.95;2063.23;24062.00;0.08;42.30;;;;;17.30;1.00;;;;;;2267390;61;1589;-89
2021/10/06 09:13:39;1309083.00;4.36;2288.74;91991.00;0.31;159.75;;;;;17.10;1.00;;;;;;2267353;61;980;-87
2021/10/06 09:16:07;1293256.00;4.31;2259.77;195954.00;0.65;338.96;;;;;17.70;1.00;;;;;;2267874;61;1267;-90
2021/10/06 09:18:34;1170881.00;3.90;2037.66;99097.00;0.33;172.01;;;;;18.30;1.00;;;;;;2267872;61;1998;-87
2021/10/06 09:21:04;1620832.00;5.40;2872.62;48094.00;0.16;83.89;;;;;17.90;1.00;;;;;;2267971;61;1414;-88
2021/10/06 09:23:30;1996381.00;6.65;3616.90;258787.00;0.86;447.06;;;;;17.60;1.00;;;;;;2260941;61;1026;-87
2021/10/06 09:25:59;1724221.00;5.75;3072.58;89581.00;0.30;155.58;;;;;17.00;1.00;;;;;;2268037;61;1060;-87
2021/10/06 09:28:29;1569584.00;5.23;2774.75;162439.00;0.54;281.24;;;;;16.60;1.00;;;;;;2268052;61;1120;-87
2021/10/06 09:31:00;1551369.00;5.17;2740.16;157366.00;0.52;272.50;;;;;16.80;1.00;;;;;;2268095;61;1108;-88
2021/10/06 09:33:38;1895939.00;6.32;3412.80;267497.00;0.89;462.04;;;;;16.40;1.00;;;;;;2268081;61;1017;-87
2021/10/06 09:36:11;1912856.00;6.38;3446.90;350629.00;1.17;604.94;;;;;17.10;1.00;;;;;;2267453;61;1678;-87
2021/10/06 09:38:44;1774785.00;5.92;3171.67;179912.00;0.60;311.34;;;;;17.60;1.00;;;;;;2267915;61;1919;-88
2021/10/06 09:41:30;1899043.00;6.33;3419.04;240550.00;0.80;415.70;;;;;18.30;1.00;;;;;;2267905;61;1319;-87
2021/10/06 09:43:59;924412.00;3.08;1599.04;51220.00;0.17;89.30;;;;;19.00;1.00;;;;;;2267834;61;1151;-87
2021/10/06 09:46:33;1417037.00;4.72;2487.96;246061.00;0.82;425.18;;;;;18.50;1.00;;;;;;2267860;61;1169;-87
2021/10/06 09:49:00;1303959.00;4.35;2279.35;7177.00;0.02;13.06;;;;;18.60;1.00;;;;;;2267939;61;1137;-87
2021/10/06 09:51:27;1061123.00;3.54;1841.04;138920.00;0.46;240.71;;;;;17.50;1.00;;;;;;2267889;61;1364;-88
2021/10/06 09:53:55;117688568.00;392.30;66028924.00;98199.00;0.33;170.46;;;;;17.50;1.00;;;;;;2267971;61;1125;-87
2021/10/06 09:56:23;689659.00;2.30;1189.31;121689.00;0.41;211.00;;;;;17.80;1.00;;;;;;2267987;61;982;-88
2021/10/06 09:59:02;807513.00;2.69;1394.23;43516.00;0.15;75.97;;;;;16.80;1.00;;;;;;2267896;61;1924;-88
2021/10/06 10:01:36;926333.00;3.09;1602.42;90436.00;0.30;157.06;;;;;16.80;1.00;;;;;;2267918;61;1420;-89
2021/10/06 10:04:05;744411.00;2.48;1284.34;83846.00;0.28;145.68;;;;;17.20;1.00;;;;;;2267998;61;1056;-89
2021/10/06 10:06:32;679360.00;2.26;1171.46;99146.00;0.33;172.10;;;;;17.30;1.00;;;;;;2267960;61;950;-88
2021/10/06 10:09:01;766991.00;2.56;1323.62;122552.00;0.41;212.48;;;;;17.20;1.00;;;;;;2267947;61;943;-89
2021/10/06 10:11:29;586795.00;1.96;1011.42;85442.00;0.28;148.44;;;;;17.30;1.00;;;;;;2267930;61;1389;-88
2021/10/06 10:13:56;650291.00;2.17;1121.14;64573.00;0.22;112.38;;;;;18.00;1.00;;;;;;2267962;61;1238;-87
2021/10/06 10:16:23;753712.00;2.51;1300.51;87120.00;0.29;151.33;;;;;17.90;1.00;;;;;;2267652;61;1010;-89
2021/10/06 10:18:52;837968.00;2.79;1447.42;89031.00;0.30;154.63;;;;;17.60;1.00;;;;;;2267946;61;1985;-87
2021/10/06 10:21:22;1111769.00;3.71;1931.48;202218.00;0.67;349.74;;;;;17.50;1.00;;;;;;2267870;61;1413;-88
2021/10/06 10:24:05;1007790.00;3.36;1746.27;125309.00;0.42;217.24;;;;;17.30;1.00;;;;;;2267793;61;1259;-87
2021/10/06 10:26:32;1745347.00;5.82;3113.88;174197.00;0.58;301.50;;;;;16.80;1.00;;;;;;2267757;61;1075;-88
2021/10/06 10:28:59;1616132.00;5.39;2863.61;252134.00;0.84;435.62;;;;;16.80;1.00;;;;;;2267936;61;1020;-88
2021/10/06 10:31:27;672386.00;2.24;1159.39;81899.00;0.27;142.32;;;;;17.20;1.00;;;;;;2260852;61;1353;-88
2021/10/06 10:33:56;767886.00;2.56;1325.17;76999.00;0.26;133.85;;;;;17.30;1.00;;;;;;2267941;61;1281;-88
2021/10/06 10:36:45;683085.00;2.28;1177.92;86137.00;0.29;149.64;;;;;17.20;1.00;;;;;;2267367;61;1702;-88
2021/10/06 10:39:51;805481.00;2.68;1390.68;74085.00;0.25;128.82;;;;;17.10;1.00;;;;;;2267884;61;1990;-87
2021/10/06 10:42:18;761755.00;2.54;1314.50;75597.00;0.25;131.43;;;;;17.00;1.00;;;;;;2264609;61;1361;-88
2021/10/06 10:44:46;520079.00;1.73;896.40;0.00;0.00;0.62;;;;;17.10;1.00;;;;;;2267887;61;1109;-87
2021/10/06 10:47:14;406075.00;1.35;700.25;0.00;0.00;0.62;;;;;17.20;1.00;;;;;;2267925;61;1308;-87
2021/10/06 10:49:46;675948.00;2.25;1165.55;0.00;0.00;0.62;;;;;17.70;1.00;;;;;;2267790;61;1119;-86
2021/10/06 10:52:16;727841.00;2.43;1255.55;59947.00;0.20;104.39;;;;;17.60;1.00;;;;;;2267738;61;1332;-87
2021/10/06 10:54:46;1678846.00;5.60;2984.40;78117.00;0.26;135.78;;;;;17.60;1.00;;;;;;2267795;61;1114;-86
2021/10/06 10:57:23;529631.00;1.77;912.86;0.00;0.00;0.62;;;;;17.80;1.00;;;;;;2268043;61;1145;-86
2021/10/06 10:59:51;392620.00;1.31;677.12;0.00;0.00;0.62;;;;;18.00;1.00;;;;;;2267796;61;1912;-86
2021/10/06 11:02:22;480246.00;1.60;827.82;0.00;0.00;0.62;;;;;18.20;1.00;;;;;;2267476;61;1324;-87
2021/10/06 11:04:58;899438.00;3.00;1555.13;12800.00;0.04;22.80;;;;;18.60;1.00;;;;;;2267626;61;1082;-87
2021/10/06 11:07:26;554287.00;1.85;955.35;0.00;0.00;0.62;;;;;17.90;1.00;;;;;;2267733;61;942;-87
2021/10/06 11:09:56;369097.00;1.23;636.68;0.00;0.00;0.62;;;;;17.60;1.00;;;;;;2267755;61;1127;-87
2021/10/06 11:12:39;493941.00;1.65;851.39;25679.00;0.09;45.10;;;;;17.60;1.00;;;;;;2267680;61;1376;-88
2021/10/06 11:15:29;431406.00;1.44;743.80;0.00;0.00;0.62;;;;;18.20;1.00;;;;;;2267686;61;903;-86
2021/10/06 11:18:12;842742.00;2.81;1455.77;9619.00;0.03;17.29;;;;;18.10;1.00;;;;;;2267693;61;1235;-87
2021/10/06 11:20:46;1302014.00;4.34;2275.79;153976.00;0.51;266.66;;;;;18.40;1.00;;;;;;2267669;61;2013;-87
2021/10/06 11:23:56;1695184.00;5.65;3016.07;307237.00;1.02;530.36;;;;;18.40;1.00;;;;;;2267701;61;1441;-88
2021/10/06 11:26:30;1767921.00;5.89;3158.17;174991.00;0.58;302.86;;;;;18.70;1.00;;;;;;2267801;61;1074;-87
2021/10/06 11:29:00;1347992.00;4.49;2360.21;79160.00;0.26;137.59;;;;;18.30;1.00;;;;;;2267795;61;1131;-87
2021/10/06 11:31:29;1422882.00;4.74;2498.83;32774.00;0.11;57.38;;;;;18.40;1.00;;;;;;2267659;61;1413;-87
2021/10/06 11:33:56;1537250.00;5.12;2713.41;160645.00;0.54;278.15;;;;;18.60;1.00;;;;;;2267737;61;1147;-88
2021/10/06 11:36:27;1623534.00;5.41;2877.80;99260.00;0.33;172.29;;;;;18.40;1.00;;;;;;2267662;61;1148;-87
2021/10/06 11:38:57;1292531.00;4.31;2258.44;201501.00;0.67;348.51;;;;;18.50;1.00;;;;;;2267472;61;1997;-87
2021/10/06 11:41:24;926831.00;3.09;1603.29;25971.00;0.09;45.61;;;;;19.30;1.00;;;;;;2267603;61;1298;-88
2021/10/06 11:43:53;936888.00;3.12;1621.00;0.00;0.00;0.62;;;;;19.50;1.00;;;;;;2267714;61;937;-87
2021/10/06 11:46:24;901786.00;3.01;1559.26;0.00;0.00;0.62;;;;;19.30;1.00;;;;;;2267666;61;1050;-87
2021/10/06 11:48:54;811805.00;2.71;1401.72;17012.00;0.06;30.10;;;;;18.90;1.00;;;;;;2267753;61;1058;-88
2021/10/06 11:51:22;948891.00;3.16;1642.16;43366.00;0.14;75.71;;;;;18.50;1.00;;;;;;2267726;61;1272;-87
2021/10/06 11:53:51;1234548.00;4.12;2152.81;23736.00;0.08;41.74;;;;;18.00;1.00;;;;;;2267704;61;1148;-88
2021/10/06 11:56:29;1239013.00;4.13;2160.92;144395.00;0.48;250.15;;;;;17.80;1.00;;;;;;2267727;61;929;-87
2021/10/06 11:59:06;1245917.00;4.15;2173.46;11337.00;0.04;20.27;;;;;17.30;1.00;;;;;;2267663;61;1912;-87
2021/10/06 12:01:33;1319950.00;4.40;2308.66;217228.00;0.72;375.57;;;;;17.90;1.00;;;;;;2267612;61;1337;-87
2021/10/06 12:04:12;1052145.00;3.51;1825.05;0.00;0.00;0.62;;;;;18.00;1.00;;;;;;2267787;61;1063;-87
2021/10/06 12:06:43;2121710.00;7.07;3877.30;128048.00;0.43;221.96;;;;;18.20;1.00;;;;;;2267668;61;1037;-87
2021/10/06 12:09:12;863982.00;2.88;1492.95;56115.00;0.19;97.76;;;;;19.00;1.00;;;;;;2267621;61;1136;-87
2021/10/06 12:11:41;830991.00;2.77;1435.23;23611.00;0.08;41.52;;;;;19.30;1.00;;;;;;2267535;61;1376;-87
2021/10/06 12:14:20;996500.00;3.32;1726.27;0.00;0.00;0.62;;;;;19.60;1.00;;;;;;2267617;61;1088;-87
2021/10/06 12:16:49;888726.00;2.96;1536.33;13282.00;0.04;23.63;;;;;19.40;1.00;;;;;;2267612;61;911;-88
2021/10/06 12:19:23;864872.00;2.88;1494.51;0.00;0.00;0.62;;;;;19.40;1.00;;;;;;2267595;61;1919;-88
2021/10/06 12:21:51;711357.00;2.37;1226.94;0.00;0.00;0.62;;;;;19.00;1.00;;;;;;2267525;61;1432;-87
2021/10/06 12:24:21;1503851.00;5.01;2650.37;146966.00;0.49;254.58;;;;;18.80;1.00;;;;;;2267571;61;995;-87
2021/10/06 12:26:49;1510345.00;5.03;2662.60;184624.00;0.62;319.45;;;;;18.80;1.00;;;;;;2267564;61;1091;-88
2021/10/06 12:29:22;1077517.00;3.59;1870.26;18278.00;0.06;32.29;;;;;18.60;1.00;;;;;;2267573;61;1284;-88
2021/10/06 12:31:49;982077.00;3.27;1700.75;22824.00;0.08;40.16;;;;;18.40;1.00;;;;;;2260415;61;1440;-87
2021/10/06 12:34:21;1172061.00;3.91;2039.79;70252.00;0.23;122.20;;;;;18.20;1.00;;;;;;2267612;61;1117;-87
2021/10/06 12:36:50;1215791.00;4.05;2118.80;33680.00;0.11;58.95;;;;;18.10;1.00;;;;;;2266993;61;977;-88
2021/10/06 12:39:22;1239374.00;4.13;2161.57;85936.00;0.29;149.29;;;;;18.30;1.00;;;;;;2266967;61;2008;-88
2021/10/06 12:41:54;1106271.00;3.69;1921.64;80685.00;0.27;140.22;;;;;18.60;1.00;;;;;;2266900;61;1359;-88
2021/10/06 12:44:27;1203282.00;4.01;2096.16;20433.00;0.07;36.02;;;;;18.70;1.00;;;;;;2266628;61;1001;-87
2021/10/06 12:46:56;1279035.00;4.26;2233.79;86810.00;0.29;150.80;;;;;18.90;1.00;;;;;;2266880;61;1128;-88
2021/10/06 12:49:25;1305616.00;4.35;2282.39;65719.00;0.22;114.36;;;;;19.20;1.00;;;;;;2266951;61;1033;-89
2021/10/06 12:51:58;1309346.00;4.36;2289.22;81824.00;0.27;142.19;;;;;19.50;1.00;;;;;;2266984;61;1411;-88
2021/10/06 12:54:28;1115186.00;3.72;1937.60;30409.00;0.10;53.29;;;;;19.60;1.00;;;;;;2267065;61;1155;-88
2021/10/06 12:56:58;801023.00;2.67;1382.91;137862.00;0.46;238.89;;;;;19.50;1.00;;;;;;2260416;61;980;-87
2021/10/06 12:59:34;476320.00;1.59;821.06;70626.00;0.24;122.84;;;;;19.70;1.00;;;;;;2267466;61;1907;-89
2021/10/06 13:02:03;581743.00;1.94;1002.71;82818.00;0.28;143.90;;;;;19.80;1.00;;;;;;2267405;61;1479;-86
2021/10/06 13:04:30;449256.00;1.50;774.50;55971.00;0.19;97.51;;;;;20.00;1.00;;;;;;2267552;61;914;-88
2021/10/06 13:06:57;543325.00;1.81;936.45;96093.00;0.32;166.83;;;;;20.20;1.00;;;;;;2267447;61;1060;-89
2021/10/06 13:09:26;663575.00;2.21;1144.13;83941.00;0.28;145.84;;;;;20.00;1.00;;;;;;2267362;61;1095;-87
2021/10/06 13:11:55;467216.00;1.56;805.40;64077.00;0.21;111.52;;;;;19.90;1.00;;;;;;2259541;61;1399;-88
2021/10/06 13:14:23;534713.00;1.78;921.61;0.00;0.00;0.62;;;;;20.00;1.00;;;;;;2267370;61;1167;-88
2021/10/06 13:16:51;363101.00;1.21;626.38;80082.00;0.27;139.18;;;;;20.30;1.00;;;;;;2267472;61;981;-88
2021/10/06 13:19:19;118796304.00;395.99;67912720.00;78952.00;0.26;137.23;;;;;20.50;1.00;;;;;;2267338;61;1992;-88
2021/10/06 13:21:49;483731.00;1.61;833.82;70743.00;0.24;123.04;;;;;20.20;1.00;;;;;;2267058;61;1591;-87
2021/10/06 13:24:16;487959.00;1.63;841.10;104834.00;0.35;181.92;;;;;19.80;1.00;;;;;;2267359;61;1040;-88
2021/10/06 13:26:46;567783.00;1.89;978.62;82156.00;0.27;142.76;;;;;19.60;1.00;;;;;;2267349;61;1130;-89
2021/10/06 13:29:15;866377.00;2.89;1497.14;109686.00;0.37;190.29;;;;;20.00;1.00;;;;;;2267435;61;917;-88
2021/10/06 13:31:42;742456.00;2.47;1280.94;77858.00;0.26;135.34;;;;;20.00;1.00;;;;;;2267256;61;1318;-87
2021/10/06 13:34:10;694505.00;2.32;1197.71;78761.00;0.26;136.90;;;;;19.70;1.00;;;;;;2267368;61;1252;-89
2021/10/06 13:36:37;514623.00;1.72;887.00;83232.00;0.28;144.62;;;;;19.40;1.00;;;;;;2267408;61;1020;-87
2021/10/06 13:39:04;775087.00;2.58;1337.71;101270.00;0.34;175.76;;;;;19.40;1.00;;;;;;2267330;61;1068;-88
2021/10/06 13:41:31;657332.00;2.19;1133.32;63997.00;0.21;111.39;;;;;19.10;1.00;;;;;;2267270;61;2007;-86
2021/10/06 13:44:01;571626.00;1.91;985.25;97819.00;0.33;169.81;;;;;19.00;1.00;;;;;;2267511;61;1139;-88
2021/10/06 13:46:28;637541.00;2.13;1099.09;81281.00;0.27;141.25;;;;;18.70;1.00;;;;;;2267384;61;1633;-88
2021/10/06 13:48:56;663117.00;2.21;1143.34;74556.00;0.25;129.63;;;;;18.70;1.00;;;;;;2267416;61;987;-87
2021/10/06 13:51:27;647358.00;2.16;1116.07;87042.00;0.29;151.20;;;;;18.90;1.00;;;;;;2267326;61;1377;-86
2021/10/06 13:53:54;521233.00;1.74;898.39;69715.00;0.23;121.27;;;;;18.20;1.00;;;;;;2267254;61;972;-87
2021/10/06 13:56:21;707013.00;2.36;1219.40;77125.00;0.26;134.07;;;;;18.10;1.00;;;;;;2267218;61;1043;-86
2021/10/06 13:58:48;470250.00;1.57;810.62;88010.00;0.29;152.87;;;;;18.10;1.00;;;;;;2267268;61;1141;-87
2021/10/06 14:01:16;577162.00;1.92;994.80;80023.00;0.27;139.08;;;;;19.00;1.00;;;;;;2267435;61;1914;-89
2021/10/06 14:03:43;775324.00;2.58;1338.12;118538.00;0.40;205.56;;;;;19.70;1.00;;;;;;2268011;61;1079;-87
2021/10/06 14:06:10;648378.00;2.16;1117.83;76527.00;0.26;133.04;;;;;19.00;1.00;;;;;;2268095;61;1018;-87
2021/10/06 14:08:37;603649.00;2.01;1040.52;77488.00;0.26;134.70;;;;;18.60;1.00;;;;;;2267930;61;1127;-89
2021/10/06 14:11:05;427977.00;1.43;737.91;66782.00;0.22;116.20;;;;;18.80;1.00;;;;;;2267999;61;1410;-88
2021/10/06 14:13:32;535210.00;1.78;922.47;76157.00;0.25;132.40;;;;;19.70;1.00;;;;;;2268019;61;1120;-88
2021/10/06 14:15:59;610510.00;2.04;1052.37;76438.00;0.25;132.88;;;;;19.90;1.00;;;;;;2267946;61;1119;-88
2021/10/06 14:18:28;590882.00;1.97;1018.48;107396.00;0.36;186.34;;;;;19.60;1.00;;;;;;2267877;61;1070;-89
2021/10/06 14:20:55;688337.00;2.29;1187.02;93335.00;0.31;162.07;;;;;19.40;1.00;;;;;;2267859;61;2002;-88
2021/10/06 14:23:22;528917.00;1.76;911.63;79324.00;0.26;137.87;;;;;18.80;1.00;;;;;;2267799;61;1405;-87
2021/10/06 14:25:50;554015.00;1.85;954.88;87124.00;0.29;151.34;;;;;18.90;1.00;;;;;;2267924;61;1072;-87
2021/10/06 14:28:17;602827.00;2.01;1039.10;102771.00;0.34;178.35;;;;;18.70;1.00;;;;;;2267874;61;984;-89
2021/10/06 14:30:45;657601.00;2.19;1133.79;83258.00;0.28;144.66;;;;;18.70;1.00;;;;;;2267830;61;921;-89
2021/10/06 14:33:12;772294.00;2.57;1332.85;77845.00;0.26;135.31;;;;;19.30;1.00;;;;;;2267836;61;1472;-88
2021/10/06 14:35:40;478601.00;1.60;824.99;150456.00;0.50;260.59;;;;;18.80;1.00;;;;;;2267921;61;1129;-87
2021/10/06 14:38:07;620423.00;2.07;1069.50;55580.00;0.19;96.84;;;;;18.00;1.00;;;;;;2267899;61;1067;-88
2021/10/06 14:40:34;750499.00;2.50;1294.93;78962.00;0.26;137.24;;;;;17.60;1.00;;;;;;2267732;61;1920;-89
2021/10/06 14:43:01;626267.00;2.09;1079.60;85330.00;0.28;148.24;;;;;17.30;1.00;;;;;;2267809;61;1381;-89
2021/10/06 14:45:28;639551.00;2.13;1102.56;78600.00;0.26;136.62;;;;;17.40;1.00;;;;;;2267891;61;1165;-88
2021/10/06 14:47:56;507101.00;1.69;874.05;87275.00;0.29;151.60;;;;;17.20;1.00;;;;;;2267123;61;1556;-88
2021/10/06 14:50:24;582229.00;1.94;1003.55;82668.00;0.28;143.65;;;;;17.50;1.00;;;;;;2267783;61;1122;-89
2021/10/06 14:52:55;647003.00;2.16;1115.45;83992.00;0.28;145.93;;;;;17.50;1.00;;;;;;2267834;61;1419;-88